Time;durP1;ratioP1;P1;durP2;ratioP2;P2;SDS_P1;SDS_P2;PMS_P1;PMS_P2;Temp;Humidity;BMP_temperature;BMP_pressure;BME280_temperature;BME280_humidity;BME280_pressure;Samples;Min_cycle;Max_cycle;Signal;HPM_P1;HPM_P2
2022/09/16 00:00:20;;;;;;;0.35;0.30;;;;;;;14.72;94.50;99778.44;5032056;28;20516;-66
2022/09/16 00:02:46;;;;;;;1.85;0.40;;;;;;;14.77;94.58;99769.88;5023857;28;20057;-66
2022/09/16 00:05:12;;;;;;;0.70;0.50;;;;;;;14.86;93.81;99776.34;5030851;28;20065;-66
2022/09/16 00:07:38;;;;;;;1.02;0.50;;;;;;;14.85;94.10;99774.00;5032043;28;20037;-66
2022/09/16 00:10:04;;;;;;;1.05;0.45;;;;;;;14.89;93.89;99780.16;5032232;28;20029;-67
2022/09/16 00:12:30;;;;;;;1.52;0.40;;;;;;;14.87;94.08;99775.16;5031150;28;20396;-66
2022/09/16 00:14:56;;;;;;;0.93;0.40;;;;;;;14.77;94.45;99778.75;5018567;28;20044;-66
2022/09/16 00:17:22;;;;;;;3.17;0.50;;;;;;;14.81;94.30;99776.00;5030954;28;20048;-66
2022/09/16 00:19:49;;;;;;;1.88;0.47;;;;;;;14.73;94.30;99782.69;5024633;28;20120;-66
2022/09/16 00:22:15;;;;;;;3.55;0.90;;;;;;;14.73;94.35;99775.31;5023831;28;20069;-66
2022/09/16 00:24:41;;;;;;;2.90;0.68;;;;;;;14.73;94.39;99779.97;5026405;28;20045;-66
2022/09/16 00:27:06;;;;;;;1.17;0.47;;;;;;;14.74;94.33;99778.78;5013623;28;20049;-66
2022/09/16 00:29:32;;;;;;;3.15;0.68;;;;;;;14.71;94.08;99780.34;5030810;28;20063;-66
2022/09/16 00:31:58;;;;;;;1.35;0.20;;;;;;;14.75;94.13;99777.63;5016405;28;20121;-66
2022/09/16 00:34:23;;;;;;;0.77;0.40;;;;;;;14.81;93.63;99778.69;5030748;28;20446;-66
2022/09/16 00:36:49;;;;;;;4.03;0.70;;;;;;;14.72;93.79;99770.28;5030803;28;20120;-65
2022/09/16 00:39:14;;;;;;;0.30;0.30;;;;;;;14.67;94.51;99765.31;5029500;28;20387;-65
2022/09/16 00:41:40;;;;;;;0.65;0.47;;;;;;;14.59;94.32;99761.94;5029424;28;20060;-66
2022/09/16 00:44:27;;;;;;;2.47;0.50;;;;;;;14.56;94.53;99761.94;5029924;28;20075;-66
2022/09/16 00:46:53;;;;;;;1.38;0.38;;;;;;;14.58;94.97;99773.91;5030573;28;20033;-66
2022/09/16 00:49:24;;;;;;;0.80;0.50;;;;;;;14.59;94.39;99763.84;5032439;28;20025;-65
2022/09/16 00:51:53;;;;;;;1.05;0.47;;;;;;;14.63;94.55;99770.00;5011107;28;20398;-65
2022/09/16 00:54:19;;;;;;;0.60;0.30;;;;;;;14.67;94.18;99773.47;5029169;28;20072;-66
2022/09/16 00:56:49;;;;;;;1.88;0.38;;;;;;;14.74;93.97;99785.00;5030109;28;20620;-65
2022/09/16 00:59:23;;;;;;;0.70;0.30;;;;;;;14.71;94.27;99785.78;5023874;28;20037;-66
2022/09/16 01:01:50;;;;;;;4.20;0.65;;;;;;;14.70;94.93;99791.59;5030814;28;20128;-65
2022/09/16 01:04:22;;;;;;;0.68;0.43;;;;;;;14.74;95.15;99786.91;5029722;28;20064;-65
2022/09/16 01:06:48;;;;;;;1.33;0.63;;;;;;;14.81;95.31;99793.03;5030250;28;20493;-65
2022/09/16 01:09:15;;;;;;;1.63;0.50;;;;;;;14.88;94.99;99789.50;5024955;28;20504;-65
2022/09/16 01:11:40;;;;;;;2.90;0.57;;;;;;;14.81;95.06;99784.91;5031421;28;20065;-66
2022/09/16 01:17:01;;;;;;;0.38;0.38;;;;;;;14.69;95.92;99792.78;5023496;28;20044;-65
2022/09/16 01:19:33;;;;;;;1.65;0.70;;;;;;;14.66;96.21;99780.03;5036329;28;20029;-65
2022/09/16 01:22:24;;;;;;;0.43;0.35;;;;;;;14.67;96.34;99789.72;5026665;28;20033;-65
2022/09/16 01:25:09;;;;;;;1.35;0.68;;;;;;;14.61;96.61;99786.69;5015615;28;20120;-65
2022/09/16 01:27:50;;;;;;;3.13;0.82;;;;;;;14.52;97.28;99788.34;5029223;28;20079;-65
2022/09/16 01:30:31;;;;;;;0.85;0.50;;;;;;;14.59;97.15;99785.53;5022749;28;20390;-65
2022/09/16 01:33:03;;;;;;;2.67;0.30;;;;;;;14.54;97.92;99797.56;5034119;28;20096;-66
2022/09/16 01:36:26;;;;;;;0.52;0.30;;;;;;;14.65;97.67;99792.84;5025334;28;20041;-65
2022/09/16 01:39:19;;;;;;;1.02;0.60;;;;;;;14.62;97.43;99792.84;4929107;29;20091;-65
2022/09/16 01:41:58;;;;;;;0.25;0.22;;;;;;;14.61;97.70;99775.84;4932233;29;20031;-65
2022/09/16 01:44:47;;;;;;;0.30;0.30;;;;;;;14.68;97.52;99788.53;4929454;29;20050;-65
2022/09/16 01:47:57;;;;;;;1.58;0.30;;;;;;;14.62;97.13;99782.00;4927919;29;20039;-66
2022/09/16 01:50:29;;;;;;;0.60;0.40;;;;;;;14.58;97.00;99786.69;4855248;29;20048;-66
2022/09/16 01:52:59;;;;;;;2.78;0.40;;;;;;;14.51;97.53;99792.97;4907099;29;20060;-66
2022/09/16 01:55:38;;;;;;;1.80;0.88;;;;;;;14.58;97.08;99779.34;4932608;29;20039;-65
2022/09/16 01:58:14;;;;;;;2.58;0.47;;;;;;;14.54;96.88;99777.84;4928228;29;20067;-65
2022/09/16 02:00:42;;;;;;;1.02;0.60;;;;;;;14.52;97.64;99774.78;4939998;29;20111;-66
2022/09/16 02:03:13;;;;;;;2.08;1.10;;;;;;;14.42;97.89;99773.69;4929490;29;20644;-65
2022/09/16 02:05:49;;;;;;;4.03;0.65;;;;;;;14.44;97.80;99777.53;4928706;29;20046;-66
2022/09/16 02:08:23;;;;;;;0.70;0.60;;;;;;;14.43;97.67;99770.59;4936411;29;20408;-66
2022/09/16 02:10:54;;;;;;;1.17;0.60;;;;;;;14.44;97.59;99774.84;5021358;28;20049;-66
2022/09/16 02:13:26;;;;;;;1.92;0.70;;;;;;;14.44;97.75;99755.88;5020378;28;20125;-66
2022/09/16 02:15:54;;;;;;;2.08;0.90;;;;;;;14.37;96.85;99755.94;5029498;28;20128;-66
2022/09/16 02:18:27;;;;;;;0.90;0.60;;;;;;;14.47;97.05;99759.72;5029488;28;20124;-66
2022/09/16 02:20:54;;;;;;;0.95;0.52;;;;;;;14.40;96.97;99759.81;5028801;28;20041;-66
2022/09/16 02:23:24;;;;;;;0.70;0.60;;;;;;;14.30;97.79;99749.84;5028787;28;20046;-66
2022/09/16 02:25:53;;;;;;;0.30;0.30;;;;;;;14.32;97.64;99753.66;5022319;28;20445;-67
2022/09/16 02:28:24;;;;;;;1.88;0.43;;;;;;;14.27;97.58;99754.09;5031467;28;20021;-66
2022/09/16 02:30:54;;;;;;;0.45;0.45;;;;;;;14.28;97.16;99752.94;5019385;28;20049;-66
2022/09/16 02:33:23;;;;;;;1.00;0.60;;;;;;;14.27;97.08;99754.09;5036479;28;20029;-66
2022/09/16 02:35:53;;;;;;;1.48;0.55;;;;;;;14.30;96.83;99750.59;5028970;28;20037;-66
2022/09/16 02:38:25;;;;;;;4.10;0.68;;;;;;;14.28;97.34;99744.81;5019785;28;20033;-66
2022/09/16 02:40:57;;;;;;;1.30;0.57;;;;;;;14.21;97.58;99741.34;5032951;28;20045;-66
2022/09/16 02:43:24;;;;;;;0.43;0.43;;;;;;;14.24;97.34;99748.69;5028659;28;20037;-66
2022/09/16 02:46:10;;;;;;;1.13;0.60;;;;;;;14.21;97.18;99750.25;5028981;28;20043;-66
2022/09/16 02:48:53;;;;;;;1.33;0.50;;;;;;;14.18;97.12;99764.63;5036813;28;20032;-66
2022/09/16 02:52:02;;;;;;;4.78;0.73;;;;;;;14.05;98.09;99766.25;5030593;28;20071;-66
2022/09/16 02:54:39;;;;;;;2.30;0.57;;;;;;;14.18;98.00;99772.75;5024414;28;20477;-66
2022/09/16 02:57:05;;;;;;;1.38;0.55;;;;;;;14.23;97.66;99771.53;5022226;28;20501;-66
2022/09/16 02:59:31;;;;;;;1.02;0.70;;;;;;;14.26;97.62;99773.44;5028117;28;20086;-66
2022/09/16 03:01:59;;;;;;;0.40;0.40;;;;;;;14.32;96.96;99756.38;5023052;28;20641;-66
2022/09/16 03:04:24;;;;;;;0.70;0.50;;;;;;;14.22;97.77;99753.75;5021109;28;20033;-66
2022/09/16 03:06:49;;;;;;;1.90;0.77;;;;;;;14.28;97.82;99744.03;5014223;28;20048;-66
2022/09/16 03:09:22;;;;;;;1.70;0.55;;;;;;;14.27;97.91;99745.97;5033110;28;20029;-66
2022/09/16 03:12:14;;;;;;;0.57;0.57;;;;;;;14.23;98.42;99742.50;5027476;28;20551;-66
2022/09/16 03:14:53;;;;;;;1.42;0.50;;;;;;;14.15;98.36;99751.84;5031413;28;20025;-66
2022/09/16 03:17:45;;;;;;;1.10;0.35;;;;;;;14.18;98.62;99742.94;5014711;28;20548;-66
2022/09/16 03:20:25;;;;;;;0.50;0.50;;;;;;;14.16;98.42;99744.50;5030370;28;20025;-66
2022/09/16 03:23:28;;;;;;;1.02;0.40;;;;;;;14.13;98.03;99739.91;5034113;28;20100;-67
2022/09/16 03:26:21;;;;;;;2.17;0.52;;;;;;;14.13;98.25;99743.38;5014504;28;20037;-66
2022/09/16 03:28:53;;;;;;;5.10;0.70;;;;;;;14.09;98.03;99742.63;5029537;28;20080;-66
2022/09/16 03:31:25;;;;;;;0.88;0.43;;;;;;;14.06;98.06;99740.72;5031104;28;20037;-66
2022/09/16 03:33:54;;;;;;;1.13;0.73;;;;;;;14.12;97.86;99730.22;5029800;28;20120;-66
2022/09/16 03:36:25;;;;;;;0.70;0.70;;;;;;;14.02;97.97;99736.50;5008760;28;20026;-65
2022/09/16 03:38:52;;;;;;;0.75;0.20;;;;;;;14.09;98.39;99739.91;5010591;28;20040;-65
2022/09/16 03:41:18;;;;;;;1.33;0.63;;;;;;;14.01;98.27;99732.28;5032229;28;20045;-65
2022/09/16 03:43:56;;;;;;;0.80;0.38;;;;;;;14.02;98.25;99737.28;5031267;28;20037;-65
2022/09/16 03:46:22;;;;;;;0.80;0.60;;;;;;;14.01;98.28;99730.34;5030442;28;20735;-65
2022/09/16 03:48:47;;;;;;;1.90;0.40;;;;;;;13.98;98.25;99739.25;5023561;28;20029;-66
2022/09/16 03:51:14;;;;;;;0.43;0.38;;;;;;;13.97;98.29;99737.72;5032080;28;20039;-65
2022/09/16 03:53:39;;;;;;;0.32;0.30;;;;;;;13.90;98.18;99740.47;5032058;28;20029;-66
2022/09/16 03:56:05;;;;;;;0.60;0.38;;;;;;;13.95;97.88;99731.94;5030385;28;20105;-66
2022/09/16 03:58:30;;;;;;;0.77;0.47;;;;;;;13.83;98.38;99734.34;5015725;28;20022;-66
2022/09/16 04:00:56;;;;;;;1.15;0.40;;;;;;;13.83;98.65;99732.41;5031868;28;20132;-66
2022/09/16 04:03:21;;;;;;;2.65;0.45;;;;;;;13.87;98.80;99729.69;5031576;28;20167;-65
2022/09/16 04:05:52;;;;;;;0.32;0.30;;;;;;;13.81;98.64;99729.34;5011992;28;20124;-66
2022/09/16 04:08:17;;;;;;;0.35;0.30;;;;;;;13.76;98.98;99724.38;5034041;28;20520;-66
2022/09/16 04:10:56;;;;;;;1.23;0.55;;;;;;;13.78;98.70;99734.78;5032047;28;20049;-66
2022/09/16 04:13:21;;;;;;;0.80;0.60;;;;;;;13.84;98.47;99733.94;5038311;28;20496;-66
2022/09/16 04:15:46;;;;;;;3.03;0.45;;;;;;;13.81;98.32;99734.75;5014054;28;20073;-65
2022/09/16 04:18:12;;;;;;;1.65;0.52;;;;;;;13.82;98.51;99741.69;5031476;28;20095;-65
2022/09/16 04:20:38;;;;;;;2.72;0.47;;;;;;;13.83;98.35;99737.84;5028795;28;20110;-65
2022/09/16 04:23:03;;;;;;;0.93;0.40;;;;;;;13.86;98.71;99742.44;5031191;28;20048;-65
2022/09/16 04:25:29;;;;;;;2.22;0.75;;;;;;;13.87;99.01;99732.38;5031246;28;20033;-66
2022/09/16 04:27:54;;;;;;;1.10;0.60;;;;;;;13.90;98.86;99739.72;5030453;28;20041;-65
2022/09/16 04:30:20;;;;;;;0.50;0.40;;;;;;;13.90;99.14;99737.00;5036612;28;20026;-65
2022/09/16 04:32:45;;;;;;;4.63;0.93;;;;;;;13.88;99.08;99725.81;5045765;28;20040;-65
2022/09/16 04:35:10;;;;;;;0.70;0.70;;;;;;;13.94;98.97;99724.19;5029960;28;20578;-65
2022/09/16 04:37:36;;;;;;;1.08;0.80;;;;;;;13.86;99.59;99720.78;5028794;28;20043;-65
2022/09/16 04:40:01;;;;;;;1.83;0.88;;;;;;;13.89;99.31;99706.47;5017411;28;20022;-65
2022/09/16 04:42:27;;;;;;;2.28;0.85;;;;;;;13.94;99.21;99716.84;5030816;28;20048;-65
2022/09/16 04:44:52;;;;;;;0.45;0.25;;;;;;;13.89;98.67;99708.41;5028563;28;20037;-65
2022/09/16 04:47:18;;;;;;;0.75;0.68;;;;;;;13.88;98.60;99712.28;5028028;28;20041;-65
2022/09/16 04:49:43;;;;;;;0.60;0.50;;;;;;;13.92;98.15;99710.28;5031427;28;20084;-66
2022/09/16 04:52:09;;;;;;;1.38;0.85;;;;;;;13.91;98.14;99712.25;5029577;28;20052;-65
2022/09/16 04:54:35;;;;;;;0.65;0.57;;;;;;;13.86;98.08;99709.97;5034522;28;20095;-65
2022/09/16 04:57:00;;;;;;;3.15;0.52;;;;;;;13.79;98.48;99699.19;5030859;28;20494;-65
2022/09/16 04:59:26;;;;;;;0.98;0.60;;;;;;;13.83;98.08;99699.16;5030519;28;20029;-65
2022/09/16 05:01:51;;;;;;;0.60;0.40;;;;;;;13.86;98.24;99698.38;5031120;28;20041;-65
2022/09/16 05:04:17;;;;;;;1.98;0.55;;;;;;;13.83;98.10;99694.53;5030222;28;20410;-66
2022/09/16 05:06:43;;;;;;;1.85;0.60;;;;;;;13.87;98.12;99706.09;5032574;28;20037;-65
2022/09/16 05:09:11;;;;;;;0.45;0.45;;;;;;;13.87;98.45;99703.38;5032073;28;20501;-65
2022/09/16 05:11:38;;;;;;;0.40;0.40;;;;;;;13.86;98.17;99703.78;5013575;28;20037;-65
2022/09/16 05:14:06;;;;;;;1.52;0.85;;;;;;;13.85;98.47;99703.03;5030400;28;20053;-65
2022/09/16 05:16:32;;;;;;;1.60;0.60;;;;;;;13.87;98.87;99705.31;5029158;28;20048;-65
2022/09/16 05:18:59;;;;;;;0.30;0.30;;;;;;;13.89;98.87;99701.06;5026410;28;20029;-65
2022/09/16 05:21:26;;;;;;;1.00;0.55;;;;;;;13.90;98.80;99715.38;5031547;28;20028;-65
2022/09/16 05:23:52;;;;;;;2.88;0.73;;;;;;;13.96;98.52;99716.44;5025172;28;20127;-65
2022/09/16 05:26:21;;;;;;;2.63;0.80;;;;;;;13.92;98.65;99721.13;5007755;28;20084;-65
2022/09/16 05:28:46;;;;;;;1.75;1.15;;;;;;;13.90;98.92;99715.38;5028204;28;20041;-65
2022/09/16 05:31:34;;;;;;;1.63;0.73;;;;;;;13.91;98.94;99711.47;5028948;28;20080;-65
2022/09/16 05:34:04;;;;;;;2.28;1.25;;;;;;;13.89;98.75;99720.00;5009990;28;20032;-65
2022/09/16 05:36:32;;;;;;;0.93;0.70;;;;;;;13.96;98.15;99714.50;5028934;28;20033;-65
2022/09/16 05:38:58;;;;;;;7.32;1.27;;;;;;;13.95;97.94;99706.81;5023970;28;20040;-65
2022/09/16 05:41:23;;;;;;;0.60;0.60;;;;;;;13.94;97.75;99716.06;5031384;28;20028;-66
2022/09/16 05:43:49;;;;;;;1.58;0.90;;;;;;;13.85;98.22;99724.66;5034052;28;20060;-65
2022/09/16 05:46:21;;;;;;;0.98;0.70;;;;;;;13.82;98.58;99703.06;5037155;28;20135;-65
2022/09/16 05:48:47;;;;;;;;;;;;;;;13.83;98.22;99707.28;5009486;28;20552;-65
2022/09/16 05:51:15;;;;;;;0.60;0.60;;;;;;;13.93;97.77;99714.56;5028226;28;19920;-65
2022/09/16 05:53:42;;;;;;;1.75;0.60;;;;;;;13.95;98.21;99706.81;5032961;28;20022;-65
2022/09/16 05:56:12;;;;;;;1.52;0.80;;;;;;;13.97;98.29;99713.38;5029839;28;20034;-65
2022/09/16 05:58:38;;;;;;;1.60;0.40;;;;;;;14.12;98.30;99714.00;5028215;28;20021;-66
2022/09/16 06:01:04;;;;;;;1.83;0.80;;;;;;;14.19;98.29;99717.41;5015720;28;20572;-66
2022/09/16 06:03:32;;;;;;;1.63;0.80;;;;;;;14.19;98.23;99711.19;5031246;28;20083;-66
2022/09/16 06:06:01;;;;;;;5.40;0.80;;;;;;;14.28;97.18;99719.66;5014705;28;20064;-66
2022/09/16 06:08:28;;;;;;;0.82;0.57;;;;;;;14.18;97.72;99713.16;5028706;28;20478;-66
2022/09/16 06:10:54;;;;;;;2.50;0.70;;;;;;;14.07;98.05;99709.75;5033607;28;20112;-66
2022/09/16 06:13:19;;;;;;;0.93;0.90;;;;;;;14.08;97.52;99707.84;5034708;28;20117;-66
2022/09/16 06:15:55;;;;;;;1.45;1.00;;;;;;;14.03;98.17;99706.31;5035834;28;20550;-66
2022/09/16 06:18:24;;;;;;;1.42;0.50;;;;;;;14.13;98.10;99718.25;5030860;28;20038;-66
2022/09/16 06:20:50;;;;;;;0.73;0.73;;;;;;;14.06;97.99;99702.81;5030406;28;20482;-66
2022/09/16 06:23:16;;;;;;;6.93;1.15;;;;;;;14.03;98.13;99700.91;5029462;28;20029;-66
2022/09/16 06:25:42;;;;;;;3.00;0.95;;;;;;;14.12;98.01;99695.03;5028524;28;20049;-66
2022/09/16 06:28:10;;;;;;;1.02;0.65;;;;;;;14.29;97.01;99703.00;5037076;28;20109;-66
2022/09/16 06:30:36;;;;;;;0.50;0.50;;;;;;;14.28;97.86;99693.38;5025420;28;20042;-66
2022/09/16 06:33:02;;;;;;;2.97;0.65;;;;;;;14.43;97.45;99694.75;5028182;28;20037;-66
2022/09/16 06:35:27;;;;;;;4.55;1.17;;;;;;;14.48;96.97;99700.91;5019311;28;20128;-66
2022/09/16 06:37:53;;;;;;;0.70;0.40;;;;;;;14.47;97.14;99686.56;5031235;28;20033;-66
2022/09/16 06:40:39;;;;;;;3.38;0.70;;;;;;;14.52;96.95;99699.66;5020931;28;20037;-66
2022/09/16 06:43:04;;;;;;;2.97;1.05;;;;;;;14.56;96.90;99700.41;4963814;28;20079;-66
2022/09/16 06:45:30;;;;;;;1.15;0.80;;;;;;;14.57;97.15;99688.41;4958347;28;20043;-65
2022/09/16 06:47:58;;;;;;;6.18;0.70;;;;;;;14.67;97.35;99687.50;4953812;29;20107;-66
2022/09/16 06:50:24;;;;;;;0.95;0.60;;;;;;;14.76;97.47;99687.78;4937669;28;20474;-66
2022/09/16 06:52:50;;;;;;;1.25;0.63;;;;;;;14.98;97.06;99682.84;4959082;28;20070;-66
2022/09/16 06:55:15;;;;;;;0.93;0.60;;;;;;;15.18;96.79;99675.56;4951241;29;20074;-66
2022/09/16 06:57:41;;;;;;;3.65;0.60;;;;;;;15.32;96.55;99683.53;4952471;29;20030;-66
2022/09/16 07:00:07;;;;;;;3.05;0.30;;;;;;;15.47;94.67;99684.09;4952215;29;20544;-66
2022/09/16 07:02:34;;;;;;;1.75;0.47;;;;;;;15.41;94.18;99681.03;4952238;29;20126;-66
2022/09/16 07:05:00;;;;;;;2.85;0.60;;;;;;;15.45;93.95;99676.38;4943078;29;20179;-66
2022/09/16 07:07:30;;;;;;;1.15;0.68;;;;;;;15.53;93.43;99680.50;4956459;28;20046;-66
2022/09/16 07:09:56;;;;;;;2.00;1.48;;;;;;;15.51;92.65;99679.38;4952226;29;20570;-65
2022/09/16 07:12:21;;;;;;;1.13;0.40;;;;;;;15.55;92.14;99680.88;4941342;29;20079;-66
2022/09/16 07:14:46;;;;;;;0.85;0.47;;;;;;;15.48;91.80;99683.69;4934627;29;20130;-66
2022/09/16 07:17:12;;;;;;;0.30;0.20;;;;;;;15.68;90.85;99678.34;4951690;28;20381;-66
2022/09/16 07:19:37;;;;;;;3.25;0.20;;;;;;;15.64;91.50;99672.22;4976013;28;20041;-66
2022/09/16 07:22:03;;;;;;;1.52;0.43;;;;;;;15.82;90.83;99670.72;5031510;28;20064;-66
2022/09/16 07:24:28;;;;;;;0.60;0.60;;;;;;;16.14;89.96;99667.47;5031367;28;20032;-66
2022/09/16 07:26:54;;;;;;;0.80;0.40;;;;;;;16.28;89.75;99667.94;5024932;28;20033;-66
2022/09/16 07:29:19;;;;;;;0.70;0.30;;;;;;;16.45;89.35;99676.97;5017439;28;20116;-66
2022/09/16 07:31:45;;;;;;;6.68;0.52;;;;;;;16.70;88.89;99676.47;5021149;28;20432;-66
2022/09/16 07:34:11;;;;;;;1.80;0.30;;;;;;;16.83;86.25;99671.94;5019774;28;20435;-66
2022/09/16 07:36:40;;;;;;;0.73;0.30;;;;;;;16.97;86.07;99688.72;5015670;28;20168;-66
2022/09/16 07:39:13;;;;;;;0.88;0.43;;;;;;;16.94;84.28;99686.06;5035287;28;20032;-66
2022/09/16 07:41:41;;;;;;;0.43;0.30;;;;;;;17.13;84.62;99687.97;5013509;28;20049;-66
2022/09/16 07:44:10;;;;;;;0.90;0.20;;;;;;;17.34;84.04;99690.25;5028714;28;20440;-67
2022/09/16 07:46:36;;;;;;;1.08;0.43;;;;;;;17.50;82.50;99686.81;5027841;28;20104;-67
2022/09/16 07:49:04;;;;;;;4.72;0.55;;;;;;;17.65;81.18;99688.72;5028902;28;20144;-67
2022/09/16 07:51:30;;;;;;;3.15;0.15;;;;;;;17.72;79.58;99694.03;5026124;28;20034;-67
2022/09/16 07:53:59;;;;;;;2.25;0.28;;;;;;;17.91;79.35;99693.16;5027256;28;20056;-67
2022/09/16 07:56:29;;;;;;;1.98;0.75;;;;;;;18.14;78.47;99685.97;5029753;28;20063;-67
2022/09/16 07:58:55;;;;;;;5.05;0.57;;;;;;;18.36;76.96;99689.66;5029424;28;20033;-67
2022/09/16 08:01:21;;;;;;;4.05;0.17;;;;;;;18.44;76.14;99680.13;5028764;28;20103;-67
2022/09/16 08:03:47;;;;;;;2.83;0.40;;;;;;;18.56;76.77;99682.88;5031665;28;20514;-67
2022/09/16 08:06:16;;;;;;;3.20;0.30;;;;;;;18.84;75.93;99694.94;5008660;28;20045;-67
2022/09/16 08:08:42;;;;;;;3.92;0.30;;;;;;;18.84;76.19;99689.50;5025162;28;20036;-67
2022/09/16 08:11:08;;;;;;;0.47;0.13;;;;;;;18.97;75.20;99678.59;5011077;28;20033;-67
2022/09/16 08:13:36;;;;;;;1.27;0.20;;;;;;;19.10;74.29;99682.88;5028139;28;20470;-67
2022/09/16 08:16:05;;;;;;;0.43;0.10;;;;;;;19.30;72.66;99696.31;5027189;28;20021;-67
2022/09/16 08:18:31;;;;;;;0.25;0.13;;;;;;;19.43;71.76;99694.38;5028034;28;20045;-67
2022/09/16 08:20:58;;;;;;;2.28;0.10;;;;;;;19.63;70.86;99686.69;5027378;28;20486;-67
2022/09/16 08:23:24;;;;;;;1.75;0.50;;;;;;;19.74;69.12;99679.66;5029498;28;20040;-67
2022/09/16 08:25:59;;;;;;;0.28;0.28;;;;;;;19.75;66.44;99678.47;5023535;28;20321;-67
2022/09/16 08:28:26;;;;;;;0.15;0.10;;;;;;;19.80;67.06;99686.09;5029482;28;20049;-67
2022/09/16 08:30:51;;;;;;;2.80;0.30;;;;;;;19.93;67.87;99682.59;5027496;28;20041;-67
2022/09/16 08:33:20;;;;;;;0.40;0.13;;;;;;;20.08;65.19;99700.03;5023556;28;20386;-67
2022/09/16 08:36:09;;;;;;;1.17;0.20;;;;;;;20.21;63.22;99695.34;5022676;28;20037;-68
2022/09/16 08:38:35;;;;;;;0.43;0.17;;;;;;;20.24;63.63;99695.22;5030089;28;20120;-67
2022/09/16 08:41:17;;;;;;;1.60;0.10;;;;;;;20.27;63.06;99694.31;5018707;28;20120;-67
2022/09/16 08:43:48;;;;;;;0.68;0.20;;;;;;;20.35;60.70;99692.88;5026941;28;20425;-67
2022/09/16 08:46:30;;;;;;;0.30;0.20;;;;;;;20.37;59.68;99684.19;5028074;28;20095;-67
2022/09/16 08:49:16;;;;;;;1.90;0.65;;;;;;;20.43;60.46;99690.63;5028119;28;20041;-67
2022/09/16 08:51:43;;;;;;;1.25;0.10;;;;;;;20.48;60.14;99701.00;5029886;28;20068;-67
2022/09/16 08:54:21;;;;;;;1.55;0.52;;;;;;;20.54;59.10;99702.72;5007758;28;20090;-65
2022/09/16 08:56:48;;;;;;;0.82;0.30;;;;;;;20.65;60.10;99699.63;5036204;28;20040;-66
2022/09/16 08:59:20;;;;;;;0.65;0.32;;;;;;;20.69;60.54;99703.00;5026401;28;20088;-67
2022/09/16 09:02:04;;;;;;;2.85;0.30;;;;;;;20.63;62.17;99697.31;5025867;28;20410;-67
2022/09/16 09:04:30;;;;;;;2.55;0.17;;;;;;;20.75;60.47;99709.41;5007960;28;20482;-66
2022/09/16 09:07:20;;;;;;;0.52;0.20;;;;;;;20.79;58.99;99698.34;5026662;28;20037;-67
2022/09/16 09:09:57;;;;;;;0.40;0.30;;;;;;;20.67;59.18;99708.91;5031232;28;20140;-65
2022/09/16 09:12:37;;;;;;;2.05;0.38;;;;;;;20.52;58.84;99696.94;5027070;28;20039;-67
2022/09/16 09:15:31;;;;;;;2.60;0.40;;;;;;;20.54;60.38;99696.47;5033216;28;20044;-67
2022/09/16 09:18:18;;;;;;;1.52;0.38;;;;;;;20.28;59.71;99697.81;5029286;28;20120;-67
2022/09/16 09:21:05;;;;;;;0.30;0.25;;;;;;;20.24;60.46;99688.97;5006838;28;20111;-67
2022/09/16 09:23:39;;;;;;;2.15;0.10;;;;;;;20.13;61.76;99691.28;5028666;28;20452;-67
2022/09/16 09:26:26;;;;;;;0.65;0.15;;;;;;;20.12;60.70;99687.78;5028439;28;20080;-67
2022/09/16 09:29:14;;;;;;;4.10;0.30;;;;;;;20.13;62.49;99694.03;5025635;28;20132;-66
2022/09/16 09:31:43;;;;;;;2.72;0.85;;;;;;;20.15;62.01;99681.41;5009564;28;20056;-67
2022/09/16 09:34:27;;;;;;;2.58;0.73;;;;;;;20.20;60.33;99688.31;5009433;28;20037;-67
2022/09/16 09:37:22;;;;;;;0.98;0.30;;;;;;;20.14;61.00;99682.63;5006194;28;20045;-67
2022/09/16 09:40:09;;;;;;;1.20;0.57;;;;;;;20.03;61.33;99681.47;5022985;28;20143;-67
2022/09/16 09:42:39;;;;;;;1.35;0.20;;;;;;;19.87;62.96;99685.13;5020438;28;20490;-67
2022/09/16 09:45:28;;;;;;;1.27;0.43;;;;;;;19.41;66.69;99691.31;5024921;28;20048;-67
2022/09/16 09:48:18;;;;;;;4.00;0.35;;;;;;;19.07;69.51;99674.78;5024747;28;20088;-67
2022/09/16 09:50:46;;;;;;;1.63;0.95;;;;;;;18.70;72.83;99681.69;5009180;28;20129;-67
2022/09/16 09:53:31;;;;;;;2.00;0.40;;;;;;;18.66;73.60;99687.25;5024715;28;20522;-67
2022/09/16 09:56:21;;;;;;;1.40;0.40;;;;;;;18.36;76.71;99667.84;5029153;28;20386;-66
2022/09/16 09:58:59;;;;;;;3.55;0.63;;;;;;;18.01;78.59;99670.31;5027816;28;20446;-66
2022/09/16 10:01:24;;;;;;;0.40;0.40;;;;;;;17.85;79.75;99661.41;5009046;28;20177;-66
2022/09/16 10:03:52;;;;;;;1.98;1.00;;;;;;;17.75;81.52;99662.47;5028863;28;20178;-66
2022/09/16 10:06:25;;;;;;;1.05;0.30;;;;;;;17.96;82.39;99667.38;5017438;28;20041;-66
2022/09/16 10:08:54;;;;;;;3.83;0.10;;;;;;;18.44;81.11;99663.75;5027496;28;20106;-66
2022/09/16 10:11:22;;;;;;;0.88;0.20;;;;;;;18.66;81.05;99659.25;5025942;28;20490;-67
2022/09/16 10:13:56;;;;;;;3.13;0.17;;;;;;;18.96;80.01;99641.59;5031872;28;20052;-67
2022/09/16 10:16:27;;;;;;;2.30;0.28;;;;;;;19.08;78.81;99654.47;5020102;28;20041;-66
2022/09/16 10:19:15;;;;;;;3.15;0.20;;;;;;;19.22;76.86;99649.34;5033043;28;20049;-66
2022/09/16 10:21:48;;;;;;;0.35;0.20;;;;;;;19.31;74.20;99649.47;5009923;28;20030;-66
2022/09/16 10:24:34;;;;;;;2.33;0.25;;;;;;;19.44;72.80;99646.72;5030282;28;20489;-66
2022/09/16 10:27:16;;;;;;;2.55;0.10;;;;;;;19.46;70.54;99649.78;5032486;28;20035;-66
2022/09/16 10:29:41;;;;;;;;;;;;;;;19.48;69.75;99645.41;5031956;28;20029;-66
2022/09/16 10:32:12;;;;;;;0.08;0.00;;;;;;;19.66;70.90;99650.31;5023362;28;20008;-67
2022/09/16 10:34:41;;;;;;;1.33;0.30;;;;;;;19.72;69.02;99651.28;5026991;28;20407;-66
2022/09/16 10:37:12;;;;;;;0.43;0.32;;;;;;;19.79;67.56;99646.34;5042572;28;20296;-67
2022/09/16 10:39:43;;;;;;;0.10;0.10;;;;;;;19.73;66.36;99642.63;5031562;28;20060;-67
2022/09/16 10:42:19;;;;;;;0.77;0.22;;;;;;;19.78;65.91;99641.31;5003213;28;20037;-66
2022/09/16 10:44:47;;;;;;;0.73;0.13;;;;;;;19.75;65.70;99631.25;5008987;28;20045;-67
2022/09/16 10:47:20;;;;;;;0.85;0.08;;;;;;;19.98;63.03;99635.53;5016400;28;20029;-67
2022/09/16 10:49:57;;;;;;;0.65;0.20;;;;;;;19.96;63.68;99643.44;5034118;28;20038;-67
2022/09/16 10:52:25;;;;;;;0.32;0.20;;;;;;;20.19;61.99;99634.84;5024473;28;20041;-67
2022/09/16 10:54:52;;;;;;;0.25;0.15;;;;;;;20.38;60.96;99620.09;5033287;28;20056;-67
2022/09/16 10:57:23;;;;;;;2.38;0.38;;;;;;;20.27;61.01;99617.72;5031866;28;20037;-67
2022/09/16 11:00:10;;;;;;;0.20;0.13;;;;;;;20.40;60.26;99623.16;5042480;28;20120;-67
2022/09/16 11:03:03;;;;;;;2.08;0.40;;;;;;;20.50;58.88;99613.75;5023345;28;20112;-66
2022/09/16 11:05:59;;;;;;;0.10;0.10;;;;;;;20.60;59.24;99599.69;5033374;28;20038;-67
2022/09/16 11:08:40;;;;;;;0.20;0.10;;;;;;;20.76;56.22;99615.13;5039954;28;20021;-67
2022/09/16 11:11:11;;;;;;;0.93;0.30;;;;;;;20.81;55.99;99602.84;5033335;28;20041;-67
2022/09/16 11:14:02;;;;;;;8.32;0.20;;;;;;;20.98;54.74;99601.41;5029636;28;20842;-67
2022/09/16 11:16:57;;;;;;;2.53;0.00;;;;;;;21.07;54.19;99606.94;5029513;28;20037;-67
2022/09/16 11:19:41;;;;;;;0.98;0.10;;;;;;;21.02;53.52;99607.53;5000877;28;20556;-67
2022/09/16 11:22:25;;;;;;;0.50;0.05;;;;;;;20.98;53.93;99612.34;5033229;28;20066;-67
2022/09/16 11:25:03;;;;;;;0.20;0.10;;;;;;;20.99;52.01;99605.66;5017986;28;20487;-67
2022/09/16 11:27:59;;;;;;;0.00;0.00;;;;;;;21.03;53.53;99604.34;5020836;28;20024;-66
2022/09/16 11:30:31;;;;;;;1.00;0.17;;;;;;;21.15;53.61;99614.41;5023703;28;20528;-67
2022/09/16 11:33:05;;;;;;;0.45;0.10;;;;;;;20.94;54.89;99617.19;5032394;28;20036;-68
2022/09/16 11:35:31;;;;;;;3.13;0.10;;;;;;;20.47;57.40;99644.75;5032621;28;20564;-67
2022/09/16 11:38:24;;;;;;;2.83;0.28;;;;;;;20.13;56.55;99639.34;5033178;28;20108;-67
2022/09/16 11:41:13;;;;;;;0.00;0.00;;;;;;;19.51;58.86;99638.31;5029881;28;20449;-67
2022/09/16 11:44:00;;;;;;;0.35;0.13;;;;;;;19.38;60.96;99629.38;5029856;28;20120;-67
2022/09/16 11:46:46;;;;;;;0.32;0.10;;;;;;;19.41;63.35;99621.06;5010489;28;20037;-66
2022/09/16 11:49:53;;;;;;;0.10;0.10;;;;;;;19.68;62.92;99609.66;5029840;28;20079;-67
2022/09/16 11:52:39;;;;;;;1.45;0.20;;;;;;;20.05;61.50;99607.97;5029754;28;20041;-67
2022/09/16 11:55:25;;;;;;;1.58;0.20;;;;;;;20.34;59.35;99603.03;5017489;28;20415;-67
2022/09/16 11:58:04;;;;;;;0.95;0.30;;;;;;;20.44;59.66;99604.63;5011612;28;20551;-67
2022/09/16 12:00:32;;;;;;;1.08;0.32;;;;;;;20.59;57.74;99600.16;5007079;28;20040;-67